sensor_id;sensor_type;location;lat;lon;timestamp;temperature;humidity
4520;DHT22;2272;49.226;8.108;2024-03-06T00:00:42;5.10;99.90
4520;DHT22;2272;49.226;8.108;2024-03-06T00:03:09;5.10;99.90
4520;DHT22;2272;49.226;8.108;2024-03-06T00:05:35;5.10;99.90
4520;DHT22;2272;49.226;8.108;2024-03-06T00:08:02;5.00;99.90
4520;DHT22;2272;49.226;8.108;2024-03-06T00:10:29;5.10;99.90
4520;DHT22;2272;49.226;8.108;2024-03-06T00:12:56;5.00;99.90
4520;DHT22;2272;49.226;8.108;2024-03-06T00:15:24;5.10;99.90
4520;DHT22;2272;49.226;8.108;2024-03-06T00:17:51;5.10;99.90
4520;DHT22;2272;49.226;8.108;2024-03-06T00:20:17;5.20;99.90
4520;DHT22;2272;49.226;8.108;2024-03-06T00:22:44;5.30;99.90
4520;DHT22;2272;49.226;8.108;2024-03-06T00:25:11;5.40;99.90
4520;DHT22;2272;49.226;8.108;2024-03-06T00:27:38;5.50;99.90
4520;DHT22;2272;49.226;8.108;2024-03-06T00:30:05;5.50;99.90
4520;DHT22;2272;49.226;8.108;2024-03-06T00:32:35;5.60;99.90
4520;DHT22;2272;49.226;8.108;2024-03-06T00:35:02;5.80;99.90
4520;DHT22;2272;49.226;8.108;2024-03-06T00:37:29;5.90;99.90
4520;DHT22;2272;49.226;8.108;2024-03-06T00:39:56;5.90;99.90
4520;DHT22;2272;49.226;8.108;2024-03-06T00:42:22;5.80;99.90
4520;DHT22;2272;49.226;8.108;2024-03-06T00:44:49;5.80;99.90
4520;DHT22;2272;49.226;8.108;2024-03-06T00:47:16;5.70;99.90
4520;DHT22;2272;49.226;8.108;2024-03-06T00:49:44;5.60;99.90
4520;DHT22;2272;49.226;8.108;2024-03-06T00:52:10;5.50;99.90
4520;DHT22;2272;49.226;8.108;2024-03-06T00:54:38;5.40;99.90
4520;DHT22;2272;49.226;8.108;2024-03-06T00:57:05;5.40;99.90
4520;DHT22;2272;49.226;8.108;2024-03-06T00:59:31;5.30;99.90
4520;DHT22;2272;49.226;8.108;2024-03-06T01:01:58;5.20;99.90
4520;DHT22;2272;49.226;8.108;2024-03-06T01:04:25;5.10;99.90
4520;DHT22;2272;49.226;8.108;2024-03-06T01:06:53;5.00;99.90
4520;DHT22;2272;49.226;8.108;2024-03-06T01:09:19;5.00;99.90
4520;DHT22;2272;49.226;8.108;2024-03-06T01:11:46;5.00;99.90
4520;DHT22;2272;49.226;8.108;2024-03-06T01:14:13;5.10;99.90
4520;DHT22;2272;49.226;8.108;2024-03-06T01:16:40;5.20;99.90
4520;DHT22;2272;49.226;8.108;2024-03-06T01:19:06;5.20;99.90
4520;DHT22;2272;49.226;8.108;2024-03-06T01:21:33;5.20;99.90
4520;DHT22;2272;49.226;8.108;2024-03-06T01:24:01;5.20;99.90
4520;DHT22;2272;49.226;8.108;2024-03-06T01:26:28;5.20;99.90
4520;DHT22;2272;49.226;8.108;2024-03-06T01:28:55;5.20;99.90
4520;DHT22;2272;49.226;8.108;2024-03-06T01:31:22;5.20;99.90
4520;DHT22;2272;49.226;8.108;2024-03-06T01:33:49;5.20;99.90
4520;DHT22;2272;49.226;8.108;2024-03-06T01:36:15;5.20;99.90
4520;DHT22;2272;49.226;8.108;2024-03-06T01:38:42;5.30;99.90
4520;DHT22;2272;49.226;8.108;2024-03-06T01:41:13;5.30;99.90
4520;DHT22;2272;49.226;8.108;2024-03-06T01:43:40;5.30;99.90
4520;DHT22;2272;49.226;8.108;2024-03-06T01:46:07;5.40;99.90
4520;DHT22;2272;49.226;8.108;2024-03-06T01:48:39;5.40;99.90
4520;DHT22;2272;49.226;8.108;2024-03-06T01:51:06;5.50;99.90
4520;DHT22;2272;49.226;8.108;2024-03-06T01:53:33;5.40;99.90
4520;DHT22;2272;49.226;8.108;2024-03-06T01:56:02;5.40;99.90
4520;DHT22;2272;49.226;8.108;2024-03-06T01:58:31;5.40;99.90
4520;DHT22;2272;49.226;8.108;2024-03-06T02:00:59;5.30;99.90
4520;DHT22;2272;49.226;8.108;2024-03-06T02:03:26;5.30;99.90
4520;DHT22;2272;49.226;8.108;2024-03-06T02:05:53;5.20;99.90
4520;DHT22;2272;49.226;8.108;2024-03-06T02:08:19;5.20;99.90
4520;DHT22;2272;49.226;8.108;2024-03-06T02:10:46;5.00;99.90
4520;DHT22;2272;49.226;8.108;2024-03-06T02:13:13;4.90;99.90
4520;DHT22;2272;49.226;8.108;2024-03-06T02:15:41;4.80;99.90
4520;DHT22;2272;49.226;8.108;2024-03-06T02:18:08;4.60;99.90
4520;DHT22;2272;49.226;8.108;2024-03-06T02:20:38;4.50;99.90
4520;DHT22;2272;49.226;8.108;2024-03-06T02:23:05;4.40;99.90
4520;DHT22;2272;49.226;8.108;2024-03-06T02:25:32;4.30;99.90
4520;DHT22;2272;49.226;8.108;2024-03-06T02:27:59;4.20;99.90
4520;DHT22;2272;49.226;8.108;2024-03-06T02:30:25;4.10;99.90
4520;DHT22;2272;49.226;8.108;2024-03-06T02:32:52;4.00;99.90
4520;DHT22;2272;49.226;8.108;2024-03-06T02:35:19;4.00;99.90
4520;DHT22;2272;49.226;8.108;2024-03-06T02:37:46;4.00;99.90
4520;DHT22;2272;49.226;8.108;2024-03-06T02:40:13;4.00;99.90
4520;DHT22;2272;49.226;8.108;2024-03-06T02:42:40;4.00;99.90
4520;DHT22;2272;49.226;8.108;2024-03-06T02:45:07;4.10;99.90
4520;DHT22;2272;49.226;8.108;2024-03-06T02:47:34;4.10;99.90
4520;DHT22;2272;49.226;8.108;2024-03-06T02:50:01;4.00;99.90
4520;DHT22;2272;49.226;8.108;2024-03-06T02:52:28;4.00;99.90
4520;DHT22;2272;49.226;8.108;2024-03-06T02:54:56;4.00;99.90
4520;DHT22;2272;49.226;8.108;2024-03-06T02:57:23;4.00;99.90
4520;DHT22;2272;49.226;8.108;2024-03-06T02:59:49;4.00;99.90
4520;DHT22;2272;49.226;8.108;2024-03-06T03:02:16;4.10;99.90
4520;DHT22;2272;49.226;8.108;2024-03-06T03:04:43;4.30;99.90
4520;DHT22;2272;49.226;8.108;2024-03-06T03:07:10;4.40;99.90
4520;DHT22;2272;49.226;8.108;2024-03-06T03:09:37;4.60;99.90
4520;DHT22;2272;49.226;8.108;2024-03-06T03:12:05;4.80;99.90
4520;DHT22;2272;49.226;8.108;2024-03-06T03:14:32;4.90;99.90
4520;DHT22;2272;49.226;8.108;2024-03-06T03:16:59;5.00;99.90
4520;DHT22;2272;49.226;8.108;2024-03-06T03:19:26;5.00;99.90
4520;DHT22;2272;49.226;8.108;2024-03-06T03:21:53;5.00;99.90
4520;DHT22;2272;49.226;8.108;2024-03-06T03:24:19;4.90;99.90
4520;DHT22;2272;49.226;8.108;2024-03-06T03:26:47;4.90;99.90
4520;DHT22;2272;49.226;8.108;2024-03-06T03:29:15;4.90;99.90
4520;DHT22;2272;49.226;8.108;2024-03-06T03:31:41;4.90;99.90
4520;DHT22;2272;49.226;8.108;2024-03-06T03:34:08;5.00;99.90
4520;DHT22;2272;49.226;8.108;2024-03-06T03:36:40;5.00;99.90
4520;DHT22;2272;49.226;8.108;2024-03-06T03:39:06;4.90;99.90
4520;DHT22;2272;49.226;8.108;2024-03-06T03:41:42;4.80;99.90
4520;DHT22;2272;49.226;8.108;2024-03-06T03:44:08;4.70;99.90
4520;DHT22;2272;49.226;8.108;2024-03-06T03:46:36;4.60;99.90
4520;DHT22;2272;49.226;8.108;2024-03-06T03:49:04;4.60;99.90
4520;DHT22;2272;49.226;8.108;2024-03-06T03:51:30;4.50;99.90
4520;DHT22;2272;49.226;8.108;2024-03-06T03:53:57;4.40;99.90
4520;DHT22;2272;49.226;8.108;2024-03-06T03:56:24;4.30;99.90
4520;DHT22;2272;49.226;8.108;2024-03-06T03:58:50;4.30;99.90
4520;DHT22;2272;49.226;8.108;2024-03-06T04:01:17;4.20;99.90
4520;DHT22;2272;49.226;8.108;2024-03-06T04:03:45;4.20;99.90
4520;DHT22;2272;49.226;8.108;2024-03-06T04:06:12;4.20;99.90
4520;DHT22;2272;49.226;8.108;2024-03-06T04:08:39;4.10;99.90
4520;DHT22;2272;49.226;8.108;2024-03-06T04:11:06;4.10;99.90
4520;DHT22;2272;49.226;8.108;2024-03-06T04:13:35;4.10;99.90
4520;DHT22;2272;49.226;8.108;2024-03-06T04:16:03;4.00;99.90
4520;DHT22;2272;49.226;8.108;2024-03-06T04:18:31;3.90;99.90
4520;DHT22;2272;49.226;8.108;2024-03-06T04:21:02;3.90;99.90
4520;DHT22;2272;49.226;8.108;2024-03-06T04:23:30;3.80;99.90
4520;DHT22;2272;49.226;8.108;2024-03-06T04:25:57;3.80;99.90
4520;DHT22;2272;49.226;8.108;2024-03-06T04:28:24;3.70;99.90
4520;DHT22;2272;49.226;8.108;2024-03-06T04:30:50;3.70;99.90
4520;DHT22;2272;49.226;8.108;2024-03-06T04:33:17;3.80;99.90
4520;DHT22;2272;49.226;8.108;2024-03-06T04:35:44;4.00;99.90
4520;DHT22;2272;49.226;8.108;2024-03-06T04:38:12;4.10;99.90
4520;DHT22;2272;49.226;8.108;2024-03-06T04:40:39;4.30;99.90
4520;DHT22;2272;49.226;8.108;2024-03-06T04:43:06;4.30;99.90
4520;DHT22;2272;49.226;8.108;2024-03-06T04:45:33;4.40;99.90
4520;DHT22;2272;49.226;8.108;2024-03-06T04:48:00;4.40;99.90
4520;DHT22;2272;49.226;8.108;2024-03-06T04:50:26;4.40;99.90
4520;DHT22;2272;49.226;8.108;2024-03-06T04:52:53;4.50;99.90
4520;DHT22;2272;49.226;8.108;2024-03-06T04:55:22;4.50;99.90
4520;DHT22;2272;49.226;8.108;2024-03-06T04:57:51;4.40;99.90
4520;DHT22;2272;49.226;8.108;2024-03-06T05:00:18;4.40;99.90
4520;DHT22;2272;49.226;8.108;2024-03-06T05:02:45;4.40;99.90
4520;DHT22;2272;49.226;8.108;2024-03-06T05:05:11;4.40;99.90
4520;DHT22;2272;49.226;8.108;2024-03-06T05:07:38;4.40;99.90
4520;DHT22;2272;49.226;8.108;2024-03-06T05:10:06;4.30;99.90
4520;DHT22;2272;49.226;8.108;2024-03-06T05:12:35;4.20;99.90
4520;DHT22;2272;49.226;8.108;2024-03-06T05:15:02;4.20;99.90
4520;DHT22;2272;49.226;8.108;2024-03-06T05:17:29;4.20;99.90
4520;DHT22;2272;49.226;8.108;2024-03-06T05:19:55;4.20;99.90
4520;DHT22;2272;49.226;8.108;2024-03-06T05:22:23;4.10;99.90
4520;DHT22;2272;49.226;8.108;2024-03-06T05:24:49;4.10;99.90
4520;DHT22;2272;49.226;8.108;2024-03-06T05:27:16;4.10;99.90
4520;DHT22;2272;49.226;8.108;2024-03-06T05:29:50;4.10;99.90
4520;DHT22;2272;49.226;8.108;2024-03-06T05:32:20;4.10;99.90
4520;DHT22;2272;49.226;8.108;2024-03-06T05:34:46;4.10;99.90
4520;DHT22;2272;49.226;8.108;2024-03-06T05:37:13;4.10;99.90
4520;DHT22;2272;49.226;8.108;2024-03-06T05:39:48;4.10;99.90
4520;DHT22;2272;49.226;8.108;2024-03-06T05:42:17;4.00;99.90
4520;DHT22;2272;49.226;8.108;2024-03-06T05:44:47;4.00;99.90
4520;DHT22;2272;49.226;8.108;2024-03-06T05:47:29;3.90;99.90
4520;DHT22;2272;49.226;8.108;2024-03-06T05:50:05;3.90;99.90
4520;DHT22;2272;49.226;8.108;2024-03-06T05:52:35;3.90;99.90
4520;DHT22;2272;49.226;8.108;2024-03-06T05:55:07;3.90;99.90
4520;DHT22;2272;49.226;8.108;2024-03-06T05:57:38;3.90;99.90
4520;DHT22;2272;49.226;8.108;2024-03-06T06:00:12;3.90;99.90
4520;DHT22;2272;49.226;8.108;2024-03-06T06:02:44;3.90;99.90
4520;DHT22;2272;49.226;8.108;2024-03-06T06:05:11;3.80;99.90
4520;DHT22;2272;49.226;8.108;2024-03-06T06:07:38;3.80;99.90
4520;DHT22;2272;49.226;8.108;2024-03-06T06:10:06;3.90;99.90
4520;DHT22;2272;49.226;8.108;2024-03-06T06:12:35;3.90;99.90
4520;DHT22;2272;49.226;8.108;2024-03-06T06:15:03;3.90;99.90
4520;DHT22;2272;49.226;8.108;2024-03-06T06:17:32;3.90;99.90
4520;DHT22;2272;49.226;8.108;2024-03-06T06:20:02;3.90;99.90
4520;DHT22;2272;49.226;8.108;2024-03-06T06:22:29;4.00;99.90
4520;DHT22;2272;49.226;8.108;2024-03-06T06:24:56;4.00;99.90
4520;DHT22;2272;49.226;8.108;2024-03-06T06:27:23;4.10;99.90
4520;DHT22;2272;49.226;8.108;2024-03-06T06:29:51;4.10;99.90
4520;DHT22;2272;49.226;8.108;2024-03-06T06:32:20;4.20;99.90
4520;DHT22;2272;49.226;8.108;2024-03-06T06:34:47;4.30;99.90
4520;DHT22;2272;49.226;8.108;2024-03-06T06:37:15;4.30;99.90
4520;DHT22;2272;49.226;8.108;2024-03-06T06:39:43;4.40;99.90
4520;DHT22;2272;49.226;8.108;2024-03-06T06:42:10;4.50;99.90
4520;DHT22;2272;49.226;8.108;2024-03-06T06:44:37;4.50;99.90
4520;DHT22;2272;49.226;8.108;2024-03-06T06:47:04;4.50;99.90
4520;DHT22;2272;49.226;8.108;2024-03-06T06:49:30;4.70;99.90
4520;DHT22;2272;49.226;8.108;2024-03-06T06:51:58;4.70;99.90
4520;DHT22;2272;49.226;8.108;2024-03-06T06:54:26;4.80;99.90
4520;DHT22;2272;49.226;8.108;2024-03-06T06:56:53;4.90;99.90
4520;DHT22;2272;49.226;8.108;2024-03-06T06:59:20;5.00;99.90
4520;DHT22;2272;49.226;8.108;2024-03-06T07:01:47;5.00;99.90
4520;DHT22;2272;49.226;8.108;2024-03-06T07:04:14;5.10;99.90
4520;DHT22;2272;49.226;8.108;2024-03-06T07:06:43;5.20;99.90
4520;DHT22;2272;49.226;8.108;2024-03-06T07:09:13;5.30;99.90
4520;DHT22;2272;49.226;8.108;2024-03-06T07:11:43;5.40;99.90
4520;DHT22;2272;49.226;8.108;2024-03-06T07:14:11;5.50;99.90
4520;DHT22;2272;49.226;8.108;2024-03-06T07:16:41;5.70;99.90
4520;DHT22;2272;49.226;8.108;2024-03-06T07:19:09;5.70;99.90
4520;DHT22;2272;49.226;8.108;2024-03-06T07:21:36;5.90;99.90
4520;DHT22;2272;49.226;8.108;2024-03-06T07:24:03;5.90;99.90
4520;DHT22;2272;49.226;8.108;2024-03-06T07:26:32;6.00;99.90
4520;DHT22;2272;49.226;8.108;2024-03-06T07:29:02;6.10;99.90
4520;DHT22;2272;49.226;8.108;2024-03-06T07:31:29;6.20;99.90
4520;DHT22;2272;49.226;8.108;2024-03-06T07:33:57;6.30;99.90
4520;DHT22;2272;49.226;8.108;2024-03-06T07:36:24;6.30;99.90
4520;DHT22;2272;49.226;8.108;2024-03-06T07:38:51;6.20;99.90
4520;DHT22;2272;49.226;8.108;2024-03-06T07:41:18;6.30;99.90
4520;DHT22;2272;49.226;8.108;2024-03-06T07:43:45;6.30;99.90
4520;DHT22;2272;49.226;8.108;2024-03-06T07:46:13;6.20;99.90
4520;DHT22;2272;49.226;8.108;2024-03-06T07:48:42;6.20;99.90
4520;DHT22;2272;49.226;8.108;2024-03-06T07:51:09;6.20;99.90
4520;DHT22;2272;49.226;8.108;2024-03-06T07:53:36;6.30;99.90
4520;DHT22;2272;49.226;8.108;2024-03-06T07:56:04;6.50;99.90
4520;DHT22;2272;49.226;8.108;2024-03-06T07:58:31;6.50;99.90
4520;DHT22;2272;49.226;8.108;2024-03-06T08:00:58;6.60;99.90
4520;DHT22;2272;49.226;8.108;2024-03-06T08:03:27;6.70;99.90
4520;DHT22;2272;49.226;8.108;2024-03-06T08:05:54;6.80;99.90
4520;DHT22;2272;49.226;8.108;2024-03-06T08:08:21;6.90;99.90
4520;DHT22;2272;49.226;8.108;2024-03-06T08:10:49;7.00;99.90
4520;DHT22;2272;49.226;8.108;2024-03-06T08:13:16;7.10;99.90
4520;DHT22;2272;49.226;8.108;2024-03-06T08:15:44;7.20;99.90
4520;DHT22;2272;49.226;8.108;2024-03-06T08:18:11;7.40;99.90
4520;DHT22;2272;49.226;8.108;2024-03-06T08:20:40;7.50;99.90
4520;DHT22;2272;49.226;8.108;2024-03-06T08:23:08;7.80;99.90
4520;DHT22;2272;49.226;8.108;2024-03-06T08:25:35;8.10;99.90
4520;DHT22;2272;49.226;8.108;2024-03-06T08:28:03;8.30;99.90
4520;DHT22;2272;49.226;8.108;2024-03-06T08:30:31;8.50;99.90
4520;DHT22;2272;49.226;8.108;2024-03-06T08:32:58;8.80;99.90
4520;DHT22;2272;49.226;8.108;2024-03-06T08:35:25;9.00;99.90
4520;DHT22;2272;49.226;8.108;2024-03-06T08:37:54;9.10;99.90
4520;DHT22;2272;49.226;8.108;2024-03-06T08:40:21;9.10;99.90
4520;DHT22;2272;49.226;8.108;2024-03-06T08:42:49;9.10;99.90
4520;DHT22;2272;49.226;8.108;2024-03-06T08:45:16;9.10;99.90
4520;DHT22;2272;49.226;8.108;2024-03-06T08:47:43;9.10;99.90
4520;DHT22;2272;49.226;8.108;2024-03-06T08:50:11;9.10;99.90
4520;DHT22;2272;49.226;8.108;2024-03-06T08:52:38;9.10;99.90
4520;DHT22;2272;49.226;8.108;2024-03-06T08:55:08;9.20;99.90
4520;DHT22;2272;49.226;8.108;2024-03-06T08:57:36;9.20;99.90
4520;DHT22;2272;49.226;8.108;2024-03-06T09:00:04;9.20;99.90
4520;DHT22;2272;49.226;8.108;2024-03-06T09:02:34;9.30;99.90
4520;DHT22;2272;49.226;8.108;2024-03-06T09:05:01;9.50;99.90
4520;DHT22;2272;49.226;8.108;2024-03-06T09:07:30;9.60;99.90
4520;DHT22;2272;49.226;8.108;2024-03-06T09:09:56;9.70;99.90
4520;DHT22;2272;49.226;8.108;2024-03-06T09:12:25;9.90;99.90
4520;DHT22;2272;49.226;8.108;2024-03-06T09:14:52;10.10;99.90
4520;DHT22;2272;49.226;8.108;2024-03-06T09:17:19;10.20;99.90
4520;DHT22;2272;49.226;8.108;2024-03-06T09:19:45;10.50;99.90
4520;DHT22;2272;49.226;8.108;2024-03-06T09:22:12;10.90;99.90
4520;DHT22;2272;49.226;8.108;2024-03-06T09:24:39;11.20;99.90
4520;DHT22;2272;49.226;8.108;2024-03-06T09:27:06;11.50;99.90
4520;DHT22;2272;49.226;8.108;2024-03-06T09:29:34;11.80;99.90
4520;DHT22;2272;49.226;8.108;2024-03-06T09:32:01;12.00;99.90
4520;DHT22;2272;49.226;8.108;2024-03-06T09:34:28;12.20;99.90
4520;DHT22;2272;49.226;8.108;2024-03-06T09:36:54;12.30;99.90
4520;DHT22;2272;49.226;8.108;2024-03-06T09:39:21;12.40;99.90
4520;DHT22;2272;49.226;8.108;2024-03-06T09:41:48;12.20;99.90
4520;DHT22;2272;49.226;8.108;2024-03-06T09:44:16;12.00;99.90
4520;DHT22;2272;49.226;8.108;2024-03-06T09:46:45;11.80;99.90
4520;DHT22;2272;49.226;8.108;2024-03-06T09:49:13;11.70;99.90
4520;DHT22;2272;49.226;8.108;2024-03-06T09:51:42;11.60;99.90
4520;DHT22;2272;49.226;8.108;2024-03-06T09:54:11;11.60;99.90
4520;DHT22;2272;49.226;8.108;2024-03-06T09:56:41;11.70;99.90
4520;DHT22;2272;49.226;8.108;2024-03-06T09:59:08;11.70;99.90
4520;DHT22;2272;49.226;8.108;2024-03-06T10:01:37;11.90;99.90
4520;DHT22;2272;49.226;8.108;2024-03-06T10:04:21;12.20;99.90
4520;DHT22;2272;49.226;8.108;2024-03-06T10:06:48;12.30;99.90
4520;DHT22;2272;49.226;8.108;2024-03-06T10:09:17;12.40;99.90
4520;DHT22;2272;49.226;8.108;2024-03-06T10:11:44;12.50;99.90
4520;DHT22;2272;49.226;8.108;2024-03-06T10:14:12;12.60;99.90
4520;DHT22;2272;49.226;8.108;2024-03-06T10:16:52;12.70;99.90
4520;DHT22;2272;49.226;8.108;2024-03-06T10:19:21;13.00;99.90
4520;DHT22;2272;49.226;8.108;2024-03-06T10:21:48;13.10;99.90
4520;DHT22;2272;49.226;8.108;2024-03-06T10:24:20;13.20;99.90
4520;DHT22;2272;49.226;8.108;2024-03-06T10:26:49;13.00;99.90
4520;DHT22;2272;49.226;8.108;2024-03-06T10:29:17;12.90;99.90
4520;DHT22;2272;49.226;8.108;2024-03-06T10:31:49;13.00;99.90
4520;DHT22;2272;49.226;8.108;2024-03-06T10:34:16;12.90;99.90
4520;DHT22;2272;49.226;8.108;2024-03-06T10:36:44;12.90;99.90
4520;DHT22;2272;49.226;8.108;2024-03-06T10:39:12;13.00;99.90
4520;DHT22;2272;49.226;8.108;2024-03-06T10:41:40;13.00;99.90
4520;DHT22;2272;49.226;8.108;2024-03-06T10:44:11;13.00;99.90
4520;DHT22;2272;49.226;8.108;2024-03-06T10:46:41;13.20;99.90
4520;DHT22;2272;49.226;8.108;2024-03-06T10:49:10;13.30;99.90
4520;DHT22;2272;49.226;8.108;2024-03-06T10:51:40;13.40;99.90
4520;DHT22;2272;49.226;8.108;2024-03-06T10:54:11;13.50;99.90
4520;DHT22;2272;49.226;8.108;2024-03-06T10:56:40;13.60;99.90
4520;DHT22;2272;49.226;8.108;2024-03-06T10:59:10;13.60;99.90
4520;DHT22;2272;49.226;8.108;2024-03-06T11:01:39;13.60;99.90
4520;DHT22;2272;49.226;8.108;2024-03-06T11:04:09;13.50;99.90
4520;DHT22;2272;49.226;8.108;2024-03-06T11:06:37;13.60;99.90
4520;DHT22;2272;49.226;8.108;2024-03-06T11:09:05;13.80;99.90
4520;DHT22;2272;49.226;8.108;2024-03-06T11:11:47;14.00;99.90
4520;DHT22;2272;49.226;8.108;2024-03-06T11:14:14;14.30;99.90
4520;DHT22;2272;49.226;8.108;2024-03-06T11:17:01;14.60;99.90
4520;DHT22;2272;49.226;8.108;2024-03-06T11:19:28;14.70;99.90
4520;DHT22;2272;49.226;8.108;2024-03-06T11:21:55;14.80;99.90
4520;DHT22;2272;49.226;8.108;2024-03-06T11:24:23;14.50;99.90
4520;DHT22;2272;49.226;8.108;2024-03-06T11:26:55;14.30;99.90
4520;DHT22;2272;49.226;8.108;2024-03-06T11:29:28;14.00;99.90
4520;DHT22;2272;49.226;8.108;2024-03-06T11:32:07;13.80;99.90
4520;DHT22;2272;49.226;8.108;2024-03-06T11:34:36;13.60;99.90
4520;DHT22;2272;49.226;8.108;2024-03-06T11:37:04;13.40;99.90
4520;DHT22;2272;49.226;8.108;2024-03-06T11:39:36;13.20;99.90
4520;DHT22;2272;49.226;8.108;2024-03-06T11:42:06;13.20;99.90
4520;DHT22;2272;49.226;8.108;2024-03-06T11:44:34;13.20;99.90
4520;DHT22;2272;49.226;8.108;2024-03-06T11:47:02;13.20;99.90
4520;DHT22;2272;49.226;8.108;2024-03-06T11:49:30;13.30;99.90
4520;DHT22;2272;49.226;8.108;2024-03-06T11:52:00;13.40;99.90
4520;DHT22;2272;49.226;8.108;2024-03-06T11:54:27;13.40;99.90
4520;DHT22;2272;49.226;8.108;2024-03-06T11:56:55;13.30;99.90
4520;DHT22;2272;49.226;8.108;2024-03-06T11:59:24;13.30;99.90
4520;DHT22;2272;49.226;8.108;2024-03-06T12:01:51;13.30;99.90
4520;DHT22;2272;49.226;8.108;2024-03-06T12:04:19;13.20;99.90
4520;DHT22;2272;49.226;8.108;2024-03-06T12:06:46;13.20;99.90
4520;DHT22;2272;49.226;8.108;2024-03-06T12:09:13;13.20;99.90
4520;DHT22;2272;49.226;8.108;2024-03-06T12:11:40;13.30;99.90
4520;DHT22;2272;49.226;8.108;2024-03-06T12:14:13;13.40;99.90
4520;DHT22;2272;49.226;8.108;2024-03-06T12:16:41;13.50;99.90
4520;DHT22;2272;49.226;8.108;2024-03-06T12:19:08;13.70;99.90
4520;DHT22;2272;49.226;8.108;2024-03-06T12:21:36;13.70;99.90
4520;DHT22;2272;49.226;8.108;2024-03-06T12:24:04;13.70;99.90
4520;DHT22;2272;49.226;8.108;2024-03-06T12:26:31;13.70;99.90
4520;DHT22;2272;49.226;8.108;2024-03-06T12:29:05;13.60;99.90
4520;DHT22;2272;49.226;8.108;2024-03-06T12:31:32;13.60;99.90
4520;DHT22;2272;49.226;8.108;2024-03-06T12:34:00;13.60;99.90
4520;DHT22;2272;49.226;8.108;2024-03-06T12:36:28;13.60;99.90
4520;DHT22;2272;49.226;8.108;2024-03-06T12:38:56;13.50;99.90
4520;DHT22;2272;49.226;8.108;2024-03-06T12:41:25;13.20;99.90
4520;DHT22;2272;49.226;8.108;2024-03-06T12:43:53;12.90;99.90
4520;DHT22;2272;49.226;8.108;2024-03-06T12:46:20;12.60;99.90
4520;DHT22;2272;49.226;8.108;2024-03-06T12:48:47;12.50;99.90
4520;DHT22;2272;49.226;8.108;2024-03-06T12:51:15;12.30;99.90
4520;DHT22;2272;49.226;8.108;2024-03-06T12:53:42;12.10;99.90
4520;DHT22;2272;49.226;8.108;2024-03-06T12:56:09;11.90;99.90
4520;DHT22;2272;49.226;8.108;2024-03-06T12:58:36;11.80;99.90
4520;DHT22;2272;49.226;8.108;2024-03-06T13:01:03;11.70;99.90
4520;DHT22;2272;49.226;8.108;2024-03-06T13:03:30;11.80;99.90
4520;DHT22;2272;49.226;8.108;2024-03-06T13:05:57;11.90;99.90
4520;DHT22;2272;49.226;8.108;2024-03-06T13:08:25;12.10;99.90
4520;DHT22;2272;49.226;8.108;2024-03-06T13:10:53;12.20;99.90
4520;DHT22;2272;49.226;8.108;2024-03-06T13:13:20;12.20;99.90
4520;DHT22;2272;49.226;8.108;2024-03-06T13:15:49;12.20;99.90
4520;DHT22;2272;49.226;8.108;2024-03-06T13:18:16;12.10;99.90
4520;DHT22;2272;49.226;8.108;2024-03-06T13:20:43;12.10;99.90
4520;DHT22;2272;49.226;8.108;2024-03-06T13:23:10;12.00;99.90
4520;DHT22;2272;49.226;8.108;2024-03-06T13:25:38;11.90;99.90
4520;DHT22;2272;49.226;8.108;2024-03-06T13:28:05;11.80;99.90
4520;DHT22;2272;49.226;8.108;2024-03-06T13:30:32;11.60;99.90
4520;DHT22;2272;49.226;8.108;2024-03-06T13:33:00;11.40;99.90
4520;DHT22;2272;49.226;8.108;2024-03-06T13:35:26;11.40;99.90
4520;DHT22;2272;49.226;8.108;2024-03-06T13:37:54;11.40;99.90
4520;DHT22;2272;49.226;8.108;2024-03-06T13:40:20;11.40;99.90
4520;DHT22;2272;49.226;8.108;2024-03-06T13:42:48;11.40;99.90
4520;DHT22;2272;49.226;8.108;2024-03-06T13:45:15;11.50;99.90
4520;DHT22;2272;49.226;8.108;2024-03-06T13:47:43;11.50;99.90
4520;DHT22;2272;49.226;8.108;2024-03-06T13:50:11;11.50;99.90
4520;DHT22;2272;49.226;8.108;2024-03-06T13:52:38;11.40;99.90
4520;DHT22;2272;49.226;8.108;2024-03-06T13:55:05;11.40;99.90
4520;DHT22;2272;49.226;8.108;2024-03-06T13:57:34;11.40;99.90
4520;DHT22;2272;49.226;8.108;2024-03-06T14:00:03;11.40;99.90
4520;DHT22;2272;49.226;8.108;2024-03-06T14:02:30;11.30;99.90
4520;DHT22;2272;49.226;8.108;2024-03-06T14:04:57;11.30;99.90
4520;DHT22;2272;49.226;8.108;2024-03-06T14:07:24;11.20;99.90
4520;DHT22;2272;49.226;8.108;2024-03-06T14:09:51;11.10;99.90
4520;DHT22;2272;49.226;8.108;2024-03-06T14:12:18;11.00;99.90
4520;DHT22;2272;49.226;8.108;2024-03-06T14:14:44;10.90;99.90
4520;DHT22;2272;49.226;8.108;2024-03-06T14:17:13;10.80;99.90
4520;DHT22;2272;49.226;8.108;2024-03-06T14:19:39;10.80;99.90
4520;DHT22;2272;49.226;8.108;2024-03-06T14:22:07;10.80;99.90
4520;DHT22;2272;49.226;8.108;2024-03-06T14:24:33;10.80;99.90
4520;DHT22;2272;49.226;8.108;2024-03-06T14:27:01;10.80;99.90
4520;DHT22;2272;49.226;8.108;2024-03-06T14:29:28;10.80;99.90
4520;DHT22;2272;49.226;8.108;2024-03-06T14:31:55;10.80;99.90
4520;DHT22;2272;49.226;8.108;2024-03-06T14:34:23;10.70;99.90
4520;DHT22;2272;49.226;8.108;2024-03-06T14:36:50;10.60;99.90
4520;DHT22;2272;49.226;8.108;2024-03-06T14:39:17;10.50;99.90
4520;DHT22;2272;49.226;8.108;2024-03-06T14:41:43;10.50;99.90
4520;DHT22;2272;49.226;8.108;2024-03-06T14:44:12;10.40;99.90
4520;DHT22;2272;49.226;8.108;2024-03-06T14:46:40;10.40;99.90
4520;DHT22;2272;49.226;8.108;2024-03-06T14:49:06;10.40;99.90
4520;DHT22;2272;49.226;8.108;2024-03-06T14:51:35;10.40;99.90
4520;DHT22;2272;49.226;8.108;2024-03-06T14:54:01;10.40;99.90
4520;DHT22;2272;49.226;8.108;2024-03-06T14:56:28;10.40;99.90
4520;DHT22;2272;49.226;8.108;2024-03-06T14:58:56;10.40;99.90
4520;DHT22;2272;49.226;8.108;2024-03-06T15:01:23;10.50;99.90
4520;DHT22;2272;49.226;8.108;2024-03-06T15:03:50;10.30;99.90
4520;DHT22;2272;49.226;8.108;2024-03-06T15:06:17;10.20;99.90
4520;DHT22;2272;49.226;8.108;2024-03-06T15:08:45;10.20;99.90
4520;DHT22;2272;49.226;8.108;2024-03-06T15:11:12;10.20;99.90
4520;DHT22;2272;49.226;8.108;2024-03-06T15:13:39;10.10;99.90
4520;DHT22;2272;49.226;8.108;2024-03-06T15:16:06;10.00;99.90
4520;DHT22;2272;49.226;8.108;2024-03-06T15:18:33;10.00;99.90
4520;DHT22;2272;49.226;8.108;2024-03-06T15:21:00;10.00;99.90
4520;DHT22;2272;49.226;8.108;2024-03-06T15:23:27;9.90;99.90
4520;DHT22;2272;49.226;8.108;2024-03-06T15:25:55;9.80;99.90
4520;DHT22;2272;49.226;8.108;2024-03-06T15:28:22;9.80;99.90
4520;DHT22;2272;49.226;8.108;2024-03-06T15:30:48;9.70;99.90
4520;DHT22;2272;49.226;8.108;2024-03-06T15:33:16;9.60;99.90
4520;DHT22;2272;49.226;8.108;2024-03-06T15:35:42;9.50;99.90
4520;DHT22;2272;49.226;8.108;2024-03-06T15:38:10;9.40;99.90
4520;DHT22;2272;49.226;8.108;2024-03-06T15:40:37;9.40;99.90
4520;DHT22;2272;49.226;8.108;2024-03-06T15:43:05;9.30;99.90
4520;DHT22;2272;49.226;8.108;2024-03-06T15:45:32;9.30;99.90
4520;DHT22;2272;49.226;8.108;2024-03-06T15:47:59;9.30;99.90
4520;DHT22;2272;49.226;8.108;2024-03-06T15:50:25;9.20;99.90
4520;DHT22;2272;49.226;8.108;2024-03-06T15:52:52;9.20;99.90
4520;DHT22;2272;49.226;8.108;2024-03-06T15:55:19;9.20;99.90
4520;DHT22;2272;49.226;8.108;2024-03-06T15:57:45;9.20;99.90
4520;DHT22;2272;49.226;8.108;2024-03-06T16:00:14;9.20;99.90
4520;DHT22;2272;49.226;8.108;2024-03-06T16:02:42;9.20;99.90
4520;DHT22;2272;49.226;8.108;2024-03-06T16:05:09;9.10;99.90
4520;DHT22;2272;49.226;8.108;2024-03-06T16:07:36;9.10;99.90
4520;DHT22;2272;49.226;8.108;2024-03-06T16:10:02;9.00;99.90
4520;DHT22;2272;49.226;8.108;2024-03-06T16:12:31;8.80;99.90
4520;DHT22;2272;49.226;8.108;2024-03-06T16:14:58;8.70;99.90